Aeroporto :
LOGIN :

Iscrizione | Disclaimer

   EN    FR    IT 

 










Sommario :    VFR   VFR Marginale   IFR   IFR Intensivo   IFR Molto Intensivo
Visibilità : 
Base nubi : 
>= 8 km
>= 3000ft
5 / 8 km
1000 / 3000 ft
1500m / 5 km
500 / 1000 ft
800 / 1500m
200 / 500 ft
< 800m
< 200 ft
Simboli :   Temporali  Nebbia  Neve Forte  Precipitazioni Forti  Vento > 20 kt
SIGMETs :   Varie  Temporali  Ghiacco  Turbolenza  Onda orograficha  Ceneri Vulcaniche






- Altitudine del aeroporto : 187 ft


ETNW - Wunstorf AB

ULTIMO METAR :
  • 220120Z AUTO 31015KT 1800 // ////// 06/06 Q1026 ///

METARs OBSOLETI :
  • 220020Z AUTO 32013KT 1500 // ////// 06/06 Q1026 ///
  • 212320Z AUTO 31014KT 3300 // ////// 06/06 Q1026 ///

TAF TAF ETNW
Valido dal 21 a 12 ore il 22 a 12 ore UTC


211117Z 2112/2212 30010KT 9999 NSW SCT015 BKN035
TEMPO 2112/2115 29012KT 5000 -RA BKN014 BKN025
BECMG 2115/2117 27010KT 8000 NSW SCT005 BKN010
TEMPO 2117/2212 29012KT 3000 RADZ BKN004 OVC010
PROB30 2120/2203 30012KT 1500 DZRA BKN002 OVC004 BY ETGL



MetMap, La meteo Aeronautica in un colpo d'occhio ! - Copyright ORBIFLY Dicembre 2007 - Disclaimer

ORBIFLY MET'MAP TEAM :

Programmazione e sviluppo : Alexandra Zaïnal
Concezione : Baudouin d'Aumeries
Aiuto per la programmazione : Marc-Olivier Méhu
Supporto tecnico e logistico : Manuel Goepfert
Aiuto per la traduzione : Arnaldo La Scala

Contatto : metmap@orbifly.com




FONTI E CREDITI :

   NOAA